createdAt,value
2023-04-19T00:00:19.949Z,61.90
2023-04-19T00:04:03.073Z,62.00
2023-04-19T00:07:45.047Z,62.20
2023-04-19T00:11:26.888Z,62.20
2023-04-19T00:15:08.951Z,62.40
2023-04-19T00:18:50.726Z,62.20
2023-04-19T00:22:32.450Z,62.30
2023-04-19T00:26:15.838Z,62.50
2023-04-19T00:29:57.819Z,62.60
2023-04-19T00:33:39.504Z,62.70
2023-04-19T00:37:21.470Z,62.70
2023-04-19T00:41:03.218Z,62.80
2023-04-19T00:44:44.987Z,62.90
2023-04-19T00:48:26.777Z,63.00
2023-04-19T00:52:08.858Z,62.80
2023-04-19T00:55:51.418Z,62.70
2023-04-19T00:59:34.820Z,62.70
2023-04-19T01:03:17.043Z,62.70
2023-04-19T01:06:59.015Z,62.70
2023-04-19T01:10:40.811Z,62.80
2023-04-19T01:14:22.544Z,62.90
2023-04-19T01:18:04.581Z,63.00
2023-04-19T01:21:46.461Z,62.90
2023-04-19T01:25:28.362Z,62.90
2023-04-19T01:29:10.250Z,63.10
2023-04-19T01:32:52.035Z,63.10
2023-04-19T01:36:34.416Z,63.10
2023-04-19T01:40:16.452Z,63.20
2023-04-19T01:43:58.148Z,63.20
2023-04-19T01:47:39.947Z,63.30
2023-04-19T01:51:21.974Z,63.30
2023-04-19T01:55:04.004Z,63.40
2023-04-19T01:58:45.704Z,63.40
2023-04-19T02:02:27.530Z,63.50
2023-04-19T02:06:13.586Z,63.60
2023-04-19T02:09:55.455Z,63.70
2023-04-19T02:13:37.381Z,63.60
2023-04-19T02:17:19.140Z,63.60
2023-04-19T02:21:00.888Z,63.70
2023-04-19T02:24:42.601Z,63.80
2023-04-19T02:28:24.513Z,63.90
2023-04-19T02:32:07.092Z,64.00
2023-04-19T02:35:48.880Z,64.00
2023-04-19T02:39:31.257Z,64.10
2023-04-19T02:43:13.002Z,64.10
2023-04-19T02:46:55.036Z,64.30
2023-04-19T02:50:38.543Z,64.40
2023-04-19T02:54:20.308Z,64.60
2023-04-19T02:58:02.048Z,64.80
2023-04-19T03:01:43.960Z,65.00
2023-04-19T03:05:25.718Z,65.10
2023-04-19T03:09:07.444Z,65.20
2023-04-19T03:12:49.183Z,65.50
2023-04-19T03:16:30.892Z,65.60
2023-04-19T03:20:12.721Z,65.80
2023-04-19T03:23:55.382Z,65.90
2023-04-19T03:27:37.189Z,66.00
2023-04-19T03:31:18.934Z,66.10
2023-04-19T03:35:00.871Z,66.20
2023-04-19T03:38:44.421Z,66.30
2023-04-19T03:42:28.744Z,66.40
2023-04-19T03:46:10.808Z,66.40
2023-04-19T03:49:52.624Z,66.50
2023-04-19T03:53:34.498Z,66.30
2023-04-19T03:57:17.697Z,66.40
2023-04-19T04:00:59.967Z,66.40
2023-04-19T04:04:41.848Z,66.50
2023-04-19T04:08:23.808Z,66.60
2023-04-19T04:12:05.740Z,66.80
2023-04-19T04:15:47.435Z,66.80
2023-04-19T04:19:29.156Z,66.90
2023-04-19T04:23:11.002Z,66.80
2023-04-19T04:26:52.705Z,67.00
2023-04-19T04:30:34.975Z,67.10
2023-04-19T04:34:16.841Z,67.20
2023-04-19T04:37:59.720Z,67.40
2023-04-19T04:41:42.381Z,67.50
2023-04-19T04:45:24.165Z,67.60
2023-04-19T04:49:06.511Z,67.80
2023-04-19T04:52:48.232Z,67.90
2023-04-19T04:56:30.897Z,68.10
2023-04-19T05:00:13.167Z,68.00
2023-04-19T05:03:54.872Z,68.00
2023-04-19T05:07:36.641Z,68.20
2023-04-19T05:11:18.930Z,68.30
2023-04-19T05:15:00.788Z,68.30
2023-04-19T05:18:42.556Z,68.40
2023-04-19T05:22:24.299Z,68.40
2023-04-19T05:26:06.092Z,68.20
2023-04-19T05:29:47.971Z,68.20
2023-04-19T05:33:29.806Z,68.30
2023-04-19T05:37:11.550Z,68.40
2023-04-19T05:40:53.294Z,68.50
2023-04-19T05:44:35.014Z,68.50
2023-04-19T05:48:16.896Z,68.50
2023-04-19T05:51:58.654Z,68.70
2023-04-19T05:55:40.370Z,69.00
2023-04-19T05:59:22.113Z,69.20
2023-04-19T06:03:04.030Z,69.40
2023-04-19T06:06:45.791Z,69.40
2023-04-19T06:10:36.743Z,69.40
2023-04-19T06:14:23.031Z,69.30
2023-04-19T06:18:05.817Z,69.60
2023-04-19T06:21:47.797Z,69.50
2023-04-19T06:25:29.557Z,69.50
2023-04-19T06:29:11.331Z,69.50
2023-04-19T06:32:53.367Z,69.60
2023-04-19T06:36:35.279Z,69.70
2023-04-19T06:40:17.134Z,69.70
2023-04-19T06:43:58.869Z,69.80
2023-04-19T06:47:40.700Z,69.80
2023-04-19T06:51:22.564Z,70.00
2023-04-19T06:55:05.271Z,70.20
2023-04-19T06:58:46.991Z,70.10
2023-04-19T07:02:28.860Z,70.00
2023-04-19T07:06:10.864Z,69.90
2023-04-19T07:09:52.680Z,69.70
2023-04-19T07:13:34.429Z,69.90
2023-04-19T07:17:18.175Z,69.90
2023-04-19T07:20:59.935Z,70.20
2023-04-19T07:24:42.061Z,70.20
2023-04-19T07:28:23.829Z,69.90
2023-04-19T07:32:05.968Z,70.20
2023-04-19T07:35:47.836Z,69.80
2023-04-19T07:39:31.013Z,69.90
2023-04-19T07:43:12.816Z,69.80
2023-04-19T07:46:54.689Z,69.50
2023-04-19T07:50:37.455Z,69.50
2023-04-19T07:54:22.194Z,69.60
2023-04-19T07:58:04.029Z,69.70
2023-04-19T08:01:45.852Z,69.80
2023-04-19T08:05:27.879Z,69.90
2023-04-19T08:09:09.640Z,69.80
2023-04-19T08:13:05.361Z,69.90
2023-04-19T08:20:33.158Z,69.90
2023-04-19T08:24:15.188Z,69.70
2023-04-19T08:27:58.093Z,69.50
2023-04-19T08:31:39.903Z,69.50
2023-04-19T08:35:21.834Z,69.40
2023-04-19T08:39:08.145Z,69.40
2023-04-19T08:42:52.124Z,69.30
2023-04-19T08:46:33.910Z,69.40
2023-04-19T08:50:33.535Z,69.30
2023-04-19T08:54:19.453Z,69.20
2023-04-19T08:58:04.174Z,69.00
2023-04-19T09:01:47.599Z,68.90
2023-04-19T09:05:29.817Z,68.70
2023-04-19T09:09:35.599Z,68.80
2023-04-19T09:13:20.695Z,68.90
2023-04-19T09:17:15.833Z,68.60
2023-04-19T09:20:57.659Z,68.40
2023-04-19T09:28:24.701Z,68.20
2023-04-19T09:32:06.570Z,68.00
2023-04-19T09:35:49.606Z,67.90
2023-04-19T09:39:36.227Z,67.50
2023-04-19T09:43:49.627Z,67.30
2023-04-19T09:47:30.092Z,67.10
2023-04-19T09:51:14.447Z,67.20
2023-04-19T09:55:01.078Z,67.10
2023-04-19T09:58:50.757Z,66.90
2023-04-19T10:02:36.883Z,66.70
2023-04-19T10:10:18.816Z,66.00
2023-04-19T10:14:03.484Z,66.20
2023-04-19T10:17:45.584Z,66.40
2023-04-19T10:21:28.739Z,66.20
2023-04-19T10:25:15.789Z,65.80
2023-04-19T10:28:57.950Z,65.60
2023-04-19T10:32:45.173Z,65.40
2023-04-19T10:36:28.835Z,64.80
2023-04-19T10:40:12.298Z,64.70
2023-04-19T10:43:57.674Z,64.70
2023-04-19T10:47:46.590Z,64.60
2023-04-19T10:51:32.597Z,64.20
2023-04-19T10:55:18.097Z,64.00
2023-04-19T10:59:08.444Z,63.90
2023-04-19T11:02:50.597Z,63.40
2023-04-19T11:06:36.025Z,63.10
2023-04-19T11:10:31.566Z,62.80
2023-04-19T11:14:14.395Z,62.70
2023-04-19T11:18:11.460Z,62.80
2023-04-19T11:21:58.805Z,62.60
2023-04-19T11:25:40.585Z,61.90
2023-04-19T11:29:22.351Z,61.80
2023-04-19T11:33:04.201Z,61.50
2023-04-19T11:36:51.838Z,61.20
2023-04-19T11:40:34.004Z,60.30
2023-04-19T11:44:19.604Z,60.90
2023-04-19T11:48:01.712Z,60.80
2023-04-19T11:51:43.531Z,60.80
2023-04-19T11:55:25.492Z,60.30
2023-04-19T11:59:09.567Z,60.30
2023-04-19T12:02:52.554Z,60.10
2023-04-19T12:06:34.419Z,59.90
2023-04-19T12:10:16.168Z,59.80
2023-04-19T12:14:19.746Z,59.40
2023-04-19T12:18:02.812Z,57.10
2023-04-19T12:21:45.869Z,59.10
2023-04-19T12:25:32.321Z,58.60
2023-04-19T12:29:14.192Z,58.40
2023-04-19T12:32:56.557Z,58.20
2023-04-19T12:36:38.318Z,58.10
2023-04-19T12:40:20.476Z,58.00
2023-04-19T12:44:02.382Z,58.20
2023-04-19T12:47:45.857Z,58.20
2023-04-19T12:51:27.974Z,57.70
2023-04-19T12:55:09.857Z,57.40
2023-04-19T12:58:51.691Z,57.20
2023-04-19T13:02:36.924Z,57.30
2023-04-19T13:06:18.845Z,57.00
2023-04-19T13:10:00.796Z,57.10
2023-04-19T13:13:42.521Z,57.20
2023-04-19T13:17:24.338Z,57.00
2023-04-19T13:21:08.023Z,57.00
2023-04-19T13:24:51.596Z,57.00
2023-04-19T13:28:35.771Z,57.00
2023-04-19T13:32:17.652Z,56.90
2023-04-19T13:35:59.428Z,56.70
2023-04-19T13:39:41.279Z,56.80
2023-04-19T13:43:23.182Z,56.80
2023-04-19T13:47:04.988Z,56.70
2023-04-19T13:50:47.520Z,56.60
2023-04-19T13:54:30.463Z,56.70
2023-04-19T13:58:12.303Z,56.70
2023-04-19T14:01:55.832Z,56.70
2023-04-19T14:05:38.136Z,56.60
2023-04-19T14:09:19.995Z,56.60
2023-04-19T14:13:01.960Z,56.40
2023-04-19T14:16:44.903Z,56.50
2023-04-19T14:20:26.724Z,56.40
2023-04-19T14:24:08.551Z,56.40
2023-04-19T14:27:50.289Z,56.30
2023-04-19T14:31:32.102Z,56.30
2023-04-19T14:35:13.833Z,56.40
2023-04-19T14:38:55.546Z,56.10
2023-04-19T14:42:37.331Z,56.20
2023-04-19T14:46:19.079Z,56.20
2023-04-19T14:50:00.863Z,56.20
2023-04-19T14:53:42.601Z,56.20
2023-04-19T14:57:26.140Z,56.30
2023-04-19T15:01:12.556Z,56.30
2023-04-19T15:04:54.801Z,56.00
2023-04-19T15:08:36.644Z,56.20
2023-04-19T15:12:18.465Z,56.10
2023-04-19T15:16:02.512Z,56.10
2023-04-19T15:19:46.920Z,56.00
2023-04-19T15:23:28.694Z,55.60
2023-04-19T15:27:10.602Z,55.60
2023-04-19T15:31:03.050Z,55.40
2023-04-19T15:34:44.878Z,54.50
2023-04-19T15:38:29.223Z,55.30
2023-04-19T15:42:10.969Z,55.00
2023-04-19T15:45:52.987Z,55.00
2023-04-19T15:49:34.727Z,55.00
2023-04-19T15:53:16.728Z,54.90
2023-04-19T15:56:58.466Z,54.70
2023-04-19T16:00:40.238Z,54.70
2023-04-19T16:04:22.200Z,54.40
2023-04-19T16:08:09.443Z,54.10
2023-04-19T16:11:51.636Z,53.20
2023-04-19T16:15:34.040Z,53.70
2023-04-19T16:19:16.650Z,53.60
2023-04-19T16:22:59.085Z,53.10
2023-04-19T16:26:41.121Z,52.80
2023-04-19T16:30:23.704Z,53.00
2023-04-19T16:34:05.727Z,52.80
2023-04-19T16:37:47.501Z,52.50
2023-04-19T16:41:30.042Z,51.40
2023-04-19T16:45:11.983Z,51.60
2023-04-19T16:48:53.728Z,51.90
2023-04-19T16:52:35.956Z,51.20
2023-04-19T16:56:18.703Z,50.80
2023-04-19T17:00:00.972Z,51.20
2023-04-19T17:03:42.918Z,51.00
2023-04-19T17:07:24.874Z,51.00
2023-04-19T17:11:06.905Z,51.30
2023-04-19T17:14:48.765Z,51.60
2023-04-19T17:18:30.630Z,51.90
2023-04-19T17:22:14.868Z,51.80
2023-04-19T17:25:56.601Z,52.00
2023-04-19T17:29:38.571Z,52.10
2023-04-19T17:33:20.682Z,52.20
2023-04-19T17:37:02.731Z,52.40
2023-04-19T17:40:45.183Z,52.30
2023-04-19T17:44:27.043Z,52.30
2023-04-19T17:48:08.965Z,52.10
2023-04-19T17:51:50.703Z,50.90
2023-04-19T17:55:33.276Z,50.10
2023-04-19T17:59:15.214Z,49.40
2023-04-19T18:02:57.310Z,49.60
2023-04-19T18:06:39.396Z,50.20
2023-04-19T18:10:21.265Z,50.50
2023-04-19T18:14:03.257Z,50.80
2023-04-19T18:17:45.123Z,50.10
2023-04-19T18:21:27.196Z,49.20
2023-04-19T18:25:09.453Z,48.50
2023-04-19T18:28:51.164Z,48.10
2023-04-19T18:32:33.237Z,47.90
2023-04-19T18:36:14.979Z,47.60
2023-04-19T18:39:56.776Z,47.70
2023-04-19T18:43:38.920Z,47.20
2023-04-19T18:47:20.676Z,48.00
2023-04-19T18:51:03.022Z,48.60
2023-04-19T18:54:44.709Z,49.10
2023-04-19T18:58:27.341Z,49.50
2023-04-19T19:02:09.394Z,49.80
2023-04-19T19:05:51.397Z,49.90
2023-04-19T19:09:33.281Z,49.70
2023-04-19T19:13:15.114Z,49.60
2023-04-19T19:16:57.515Z,49.70
2023-04-19T19:20:39.334Z,49.50
2023-04-19T19:24:21.181Z,49.60
2023-04-19T19:28:08.197Z,49.60
2023-04-19T19:31:51.908Z,49.70
2023-04-19T19:35:34.156Z,49.80
2023-04-19T19:39:16.095Z,49.80
2023-04-19T19:42:58.127Z,49.90
2023-04-19T19:46:40.231Z,50.10
2023-04-19T19:54:07.451Z,50.30
2023-04-19T19:58:21.010Z,50.50
2023-04-19T20:01:51.609Z,50.60
2023-04-19T20:05:33.790Z,50.70
2023-04-19T20:09:16.319Z,50.70
2023-04-19T20:12:58.536Z,50.70
2023-04-19T20:16:40.569Z,50.80
2023-04-19T20:20:22.560Z,50.90
2023-04-19T20:24:07.842Z,51.10
2023-04-19T20:27:49.635Z,51.10
2023-04-19T20:31:31.525Z,51.10
2023-04-19T20:35:13.311Z,51.10
2023-04-19T20:38:56.922Z,51.20
2023-04-19T20:42:38.798Z,51.30
2023-04-19T20:46:20.757Z,51.30
2023-04-19T20:50:02.705Z,51.30
2023-04-19T20:53:45.076Z,51.40
2023-04-19T20:57:26.795Z,51.50
2023-04-19T21:01:08.841Z,51.50
2023-04-19T21:04:50.728Z,51.50
2023-04-19T21:08:32.566Z,51.50
2023-04-19T21:12:14.337Z,51.60
2023-04-19T21:15:56.136Z,51.60
2023-04-19T21:19:38.001Z,51.70
2023-04-19T21:23:19.827Z,51.80
2023-04-19T21:27:01.740Z,52.00
2023-04-19T21:30:43.485Z,52.10
2023-04-19T21:34:25.239Z,52.10
2023-04-19T21:38:07.110Z,52.10
2023-04-19T21:41:48.907Z,52.10
2023-04-19T21:45:30.959Z,52.20
2023-04-19T21:49:12.765Z,52.30
2023-04-19T21:52:54.509Z,52.40
2023-04-19T21:56:37.657Z,52.50
2023-04-19T22:00:19.895Z,52.70
2023-04-19T22:04:02.045Z,52.80
2023-04-19T22:07:44.927Z,53.00
2023-04-19T22:11:28.990Z,53.00
2023-04-19T22:15:11.200Z,53.00
2023-04-19T22:18:53.044Z,53.10
2023-04-19T22:22:35.425Z,53.20
2023-04-19T22:26:17.297Z,53.40
2023-04-19T22:29:59.018Z,53.50
2023-04-19T22:33:40.725Z,53.80
2023-04-19T22:37:22.551Z,53.90
2023-04-19T22:41:04.594Z,54.20
2023-04-19T22:44:46.320Z,54.40
2023-04-19T22:48:30.072Z,54.60
2023-04-19T22:52:12.153Z,54.70
2023-04-19T22:55:53.989Z,54.80
2023-04-19T22:59:35.810Z,54.90
2023-04-19T23:03:17.570Z,55.10
2023-04-19T23:06:59.558Z,55.30
2023-04-19T23:10:42.542Z,55.60
2023-04-19T23:14:24.684Z,55.70
2023-04-19T23:18:07.059Z,55.90
2023-04-19T23:21:50.285Z,56.00
2023-04-19T23:25:32.304Z,56.10
2023-04-19T23:29:14.239Z,56.30
2023-04-19T23:32:56.098Z,56.50
2023-04-19T23:36:38.007Z,56.60
2023-04-19T23:40:20.655Z,56.70
2023-04-19T23:44:02.500Z,56.80
2023-04-19T23:47:44.313Z,56.90
2023-04-19T23:51:26.169Z,57.00
2023-04-19T23:55:08.315Z,57.10
2023-04-19T23:58:50.235Z,57.20
